Time;durP1;ratioP1;P1;durP2;ratioP2;P2;SDS_P1;SDS_P2;PMS_P1;PMS_P2;Temp;Humidity;BMP_temperature;BMP_pressure;BME280_temperature;BME280_humidity;BME280_pressure;Samples;Min_cycle;Max_cycle;Signal;HPM_P1;HPM_P2
2021/07/07 00:00:47;;;;;;;5.55;1.42;;;;;;;;;;5076727;28;20037;-77
2021/07/07 00:03:13;;;;;;;6.70;1.42;;;;;;;;;;5076201;28;20024;-77
2021/07/07 00:05:38;;;;;;;4.93;1.20;;;;;;;;;;5075560;28;20094;-77
2021/07/07 00:08:04;;;;;;;5.38;1.40;;;;;;;;;;5075824;28;20032;-77
2021/07/07 00:10:34;;;;;;;8.23;1.00;;;;;;;;;;5076055;28;20036;-77
2021/07/07 00:13:02;;;;;;;4.55;1.20;;;;;;;;;;5074875;28;20050;-77
2021/07/07 00:15:31;;;;;;;12.52;3.17;;;;;;;;;;5076679;28;20032;-77
2021/07/07 00:17:57;;;;;;;5.22;1.52;;;;;;;;;;5076118;28;20037;-77
2021/07/07 00:20:23;;;;;;;4.22;0.90;;;;;;;;;;5076579;28;20036;-77
2021/07/07 00:22:49;;;;;;;4.97;1.73;;;;;;;;;;5075744;28;20036;-77
2021/07/07 00:25:15;;;;;;;8.55;1.35;;;;;;;;;;5074586;28;20115;-77
2021/07/07 00:27:40;;;;;;;12.15;1.50;;;;;;;;;;5074890;28;20482;-77
2021/07/07 00:30:07;;;;;;;6.18;1.33;;;;;;;;;;5075709;28;20025;-77
2021/07/07 00:32:33;;;;;;;8.52;1.30;;;;;;;;;;5076175;28;20074;-77
2021/07/07 00:34:58;;;;;;;10.40;1.20;;;;;;;;;;5076272;28;20405;-77
2021/07/07 00:37:24;;;;;;;3.95;1.20;;;;;;;;;;5074747;28;20094;-77
2021/07/07 00:39:49;;;;;;;8.63;1.33;;;;;;;;;;5075942;28;20497;-77
2021/07/07 00:42:15;;;;;;;12.02;1.25;;;;;;;;;;5076077;28;20043;-77
2021/07/07 00:44:40;;;;;;;3.63;1.30;;;;;;;;;;5074733;28;20040;-77
2021/07/07 00:47:06;;;;;;;6.18;1.65;;;;;;;;;;5074544;28;20048;-77
2021/07/07 00:49:32;;;;;;;3.38;1.05;;;;;;;;;;5076240;28;20025;-77
2021/07/07 00:51:57;;;;;;;9.30;1.10;;;;;;;;;;5076038;28;20420;-77
2021/07/07 00:54:24;;;;;;;3.67;0.98;;;;;;;;;;5075461;28;20462;-77
2021/07/07 00:56:50;;;;;;;5.53;1.00;;;;;;;;;;5074196;28;20123;-78
2021/07/07 00:59:19;;;;;;;8.75;1.38;;;;;;;;;;5074823;28;20032;-78
2021/07/07 01:01:45;;;;;;;5.68;1.73;;;;;;;;;;5075593;28;20028;-78
2021/07/07 01:04:10;;;;;;;3.50;1.20;;;;;;;;;;5075690;28;20441;-78
2021/07/07 01:06:35;;;;;;;5.68;1.40;;;;;;;;;;5074504;28;20520;-78
2021/07/07 01:09:02;;;;;;;5.97;1.13;;;;;;;;;;5075609;28;20033;-78
2021/07/07 01:11:31;;;;;;;11.75;2.22;;;;;;;;;;5073988;28;20402;-77
2021/07/07 01:13:56;;;;;;;11.35;1.63;;;;;;;;;;5075584;28;20043;-77
2021/07/07 01:16:22;;;;;;;5.75;1.23;;;;;;;;;;5075137;28;20036;-77
2021/07/07 01:18:47;;;;;;;6.93;1.13;;;;;;;;;;5074920;28;20089;-77
2021/07/07 01:21:14;;;;;;;6.30;1.10;;;;;;;;;;5056544;28;20125;-77
2021/07/07 01:23:39;;;;;;;5.60;1.33;;;;;;;;;;5074085;28;20519;-77
2021/07/07 01:26:05;;;;;;;8.10;1.50;;;;;;;;;;5075077;28;20072;-77
2021/07/07 01:28:32;;;;;;;9.88;1.08;;;;;;;;;;5075145;28;20085;-78
2021/07/07 01:30:57;;;;;;;4.18;1.35;;;;;;;;;;5074718;28;20037;-77
2021/07/07 01:33:23;;;;;;;8.70;1.27;;;;;;;;;;5074855;28;20082;-77
2021/07/07 01:35:48;;;;;;;10.95;1.52;;;;;;;;;;5074356;28;20028;-77
2021/07/07 01:38:14;;;;;;;2.17;1.05;;;;;;;;;;5074437;28;20372;-77
2021/07/07 01:40:39;;;;;;;15.50;3.45;;;;;;;;;;5074984;28;20387;-77
2021/07/07 01:43:05;;;;;;;6.63;1.25;;;;;;;;;;5074997;28;20123;-77
2021/07/07 01:45:30;;;;;;;7.22;2.42;;;;;;;;;;5074646;28;20423;-77
2021/07/07 01:47:56;;;;;;;2.60;1.08;;;;;;;;;;5074843;28;20042;-77
2021/07/07 01:50:22;;;;;;;6.53;1.10;;;;;;;;;;5074872;28;20036;-77
2021/07/07 01:52:49;;;;;;;14.90;1.23;;;;;;;;;;5072917;28;20036;-77
2021/07/07 01:55:16;;;;;;;9.32;1.23;;;;;;;;;;5074501;28;20397;-78
2021/07/07 01:57:43;;;;;;;5.13;1.45;;;;;;;;;;5074643;28;20402;-77
2021/07/07 02:00:14;;;;;;;6.40;1.85;;;;;;;;;;5074852;28;20109;-78
2021/07/07 02:02:40;;;;;;;10.13;2.17;;;;;;;;;;5074395;28;20040;-77
2021/07/07 02:05:07;;;;;;;13.20;1.40;;;;;;;;;;5074336;28;20029;-77
2021/07/07 02:07:32;;;;;;;6.00;1.20;;;;;;;;;;5074352;28;20501;-78
2021/07/07 02:09:58;;;;;;;7.20;0.90;;;;;;;;;;5074220;28;20075;-77
2021/07/07 02:12:24;;;;;;;10.88;1.35;;;;;;;;;;5074452;28;20090;-77
2021/07/07 02:14:49;;;;;;;8.40;1.52;;;;;;;;;;5074433;28;20482;-80
2021/07/07 02:17:15;;;;;;;13.07;1.10;;;;;;;;;;5076404;28;20041;-76
2021/07/07 02:19:40;;;;;;;12.82;1.58;;;;;;;;;;5076526;28;20032;-80
2021/07/07 02:22:06;;;;;;;10.18;1.65;;;;;;;;;;5074678;28;20117;-81
2021/07/07 02:24:31;;;;;;;13.95;1.50;;;;;;;;;;5076875;28;20170;-82
2021/07/07 02:26:56;;;;;;;6.40;1.05;;;;;;;;;;5076344;28;20078;-81
2021/07/07 02:29:22;;;;;;;17.63;1.40;;;;;;;;;;5076514;28;20039;-82
2021/07/07 02:31:47;;;;;;;15.77;1.40;;;;;;;;;;5076325;28;20106;-82
2021/07/07 02:34:13;;;;;;;18.33;2.05;;;;;;;;;;5075328;28;20036;-82
2021/07/07 02:36:38;;;;;;;10.10;1.80;;;;;;;;;;5076224;28;20444;-82
2021/07/07 02:39:05;;;;;;;14.85;1.65;;;;;;;;;;5076862;28;20115;-82
2021/07/07 02:41:30;;;;;;;8.93;1.45;;;;;;;;;;5076556;28;20044;-82
2021/07/07 02:43:55;;;;;;;9.45;1.40;;;;;;;;;;5076815;28;20093;-82
2021/07/07 02:46:21;;;;;;;6.38;1.17;;;;;;;;;;5076610;28;20044;-81
2021/07/07 02:48:46;;;;;;;7.60;1.55;;;;;;;;;;5074853;28;20498;-81
2021/07/07 02:51:12;;;;;;;12.63;1.40;;;;;;;;;;5075607;28;20120;-81
2021/07/07 02:53:37;;;;;;;6.28;1.38;;;;;;;;;;5075703;28;20039;-77
2021/07/07 02:56:03;;;;;;;8.05;1.70;;;;;;;;;;5074842;28;20062;-79
2021/07/07 02:58:28;;;;;;;19.50;1.83;;;;;;;;;;5074738;28;20047;-79
2021/07/07 03:00:54;;;;;;;11.43;3.42;;;;;;;;;;5073469;28;20363;-81
2021/07/07 03:03:23;;;;;;;9.43;1.40;;;;;;;;;;5075262;28;20119;-76
2021/07/07 03:06:00;;;;;;;15.63;1.63;;;;;;;;;;5074878;28;20075;-81
2021/07/07 03:08:31;;;;;;;5.53;1.30;;;;;;;;;;5073848;28;20032;-81
2021/07/07 03:10:57;;;;;;;9.77;1.33;;;;;;;;;;5075446;28;20040;-81
2021/07/07 03:13:23;;;;;;;7.22;1.35;;;;;;;;;;5075284;28;20462;-81
2021/07/07 03:15:50;;;;;;;9.48;1.20;;;;;;;;;;5074940;28;20100;-81
2021/07/07 03:18:16;;;;;;;6.30;1.35;;;;;;;;;;5075213;28;20028;-81
2021/07/07 03:20:43;;;;;;;14.65;1.48;;;;;;;;;;5074024;28;20047;-81
2021/07/07 03:23:10;;;;;;;5.53;1.10;;;;;;;;;;5075682;28;20554;-81
2021/07/07 03:25:36;;;;;;;11.25;1.35;;;;;;;;;;5057228;28;20409;-81
2021/07/07 03:28:02;;;;;;;11.48;1.90;;;;;;;;;;5076862;28;20033;-82
2021/07/07 03:30:28;;;;;;;3.85;1.25;;;;;;;;;;5081140;28;20047;-82
2021/07/07 03:32:54;;;;;;;12.43;1.38;;;;;;;;;;5082169;28;20032;-82
2021/07/07 03:35:20;;;;;;;4.93;1.40;;;;;;;;;;5082137;28;20036;-81
2021/07/07 03:37:45;;;;;;;8.60;1.27;;;;;;;;;;5081924;28;20040;-81
2021/07/07 03:40:12;;;;;;;7.97;1.10;;;;;;;;;;5081644;28;20106;-81
2021/07/07 03:42:38;;;;;;;10.93;1.88;;;;;;;;;;5080342;28;20028;-82
2021/07/07 03:45:05;;;;;;;7.93;1.33;;;;;;;;;;5081583;28;20413;-81
2021/07/07 03:47:31;;;;;;;7.50;1.58;;;;;;;;;;5081360;28;20048;-81
2021/07/07 03:49:56;;;;;;;5.78;1.35;;;;;;;;;;5081731;28;20039;-81
2021/07/07 03:52:22;;;;;;;12.30;1.40;;;;;;;;;;5091048;28;20040;-81
2021/07/07 03:54:47;;;;;;;6.88;1.48;;;;;;;;;;5101534;28;20169;-81
2021/07/07 03:57:13;;;;;;;11.45;1.60;;;;;;;;;;5101202;28;20044;-81
2021/07/07 03:59:38;;;;;;;3.40;1.42;;;;;;;;;;5100220;28;20027;-81
2021/07/07 04:02:04;;;;;;;7.63;1.58;;;;;;;;;;5094099;28;20028;-81
2021/07/07 04:04:29;;;;;;;4.97;1.15;;;;;;;;;;5080661;28;20051;-82
2021/07/07 04:06:59;;;;;;;5.72;1.42;;;;;;;;;;5081175;28;20033;-82
2021/07/07 04:09:30;;;;;;;9.38;1.42;;;;;;;;;;5080250;28;20032;-82
2021/07/07 04:11:56;;;;;;;5.32;1.45;;;;;;;;;;5080514;28;20029;-81
2021/07/07 04:14:24;;;;;;;8.32;1.83;;;;;;;;;;5080398;28;20041;-82
2021/07/07 04:16:55;;;;;;;4.50;1.20;;;;;;;;;;5078270;28;20086;-81
2021/07/07 04:19:21;;;;;;;11.98;1.30;;;;;;;;;;5079001;28;20440;-81
2021/07/07 04:21:47;;;;;;;8.30;1.17;;;;;;;;;;5079158;28;20036;-81
2021/07/07 04:24:13;;;;;;;8.35;1.52;;;;;;;;;;5079589;28;20029;-82
2021/07/07 04:26:38;;;;;;;10.75;1.35;;;;;;;;;;5079724;28;20044;-82
2021/07/07 04:29:04;;;;;;;8.02;1.40;;;;;;;;;;5083476;28;20040;-83
2021/07/07 04:31:29;;;;;;;11.38;1.70;;;;;;;;;;5082683;28;20040;-83
2021/07/07 04:33:54;;;;;;;15.45;1.60;;;;;;;;;;5081346;28;20036;-83
2021/07/07 04:36:20;;;;;;;6.57;1.92;;;;;;;;;;5080320;28;20036;-82
2021/07/07 04:38:45;;;;;;;5.28;1.25;;;;;;;;;;5080559;28;20036;-82
2021/07/07 04:41:11;;;;;;;9.02;1.52;;;;;;;;;;5081007;28;20029;-82
2021/07/07 04:43:36;;;;;;;3.95;1.17;;;;;;;;;;5078771;28;20040;-82
2021/07/07 04:46:02;;;;;;;8.27;1.30;;;;;;;;;;5080115;28;20040;-82
2021/07/07 04:48:27;;;;;;;11.25;1.85;;;;;;;;;;5080489;28;20493;-82
2021/07/07 04:50:52;;;;;;;7.40;1.23;;;;;;;;;;5078901;28;20028;-82
2021/07/07 04:53:19;;;;;;;8.70;1.30;;;;;;;;;;5079094;28;20051;-82
2021/07/07 04:55:44;;;;;;;7.80;1.80;;;;;;;;;;5079966;28;20405;-81
2021/07/07 04:58:10;;;;;;;6.57;1.38;;;;;;;;;;5079780;28;20039;-81
2021/07/07 05:00:35;;;;;;;4.03;1.20;;;;;;;;;;5079943;28;20371;-82
2021/07/07 05:03:01;;;;;;;6.28;1.13;;;;;;;;;;5079104;28;20067;-82
2021/07/07 05:05:26;;;;;;;4.20;1.30;;;;;;;;;;5078272;28;20036;-82
2021/07/07 05:07:52;;;;;;;2.47;1.20;;;;;;;;;;5078711;28;20029;-82
2021/07/07 05:10:17;;;;;;;5.97;1.30;;;;;;;;;;5078141;28;20119;-82
2021/07/07 05:12:43;;;;;;;7.32;1.50;;;;;;;;;;5079178;28;20039;-82
2021/07/07 05:15:11;;;;;;;2.88;1.20;;;;;;;;;;5079144;28;20047;-82
2021/07/07 05:17:37;;;;;;;5.63;1.30;;;;;;;;;;5078590;28;20042;-82
2021/07/07 05:20:03;;;;;;;6.70;1.60;;;;;;;;;;5079272;28;20130;-83
2021/07/07 05:22:29;;;;;;;7.82;1.50;;;;;;;;;;5079271;28;20036;-82
2021/07/07 05:24:54;;;;;;;7.75;1.52;;;;;;;;;;5079429;28;20093;-82
2021/07/07 05:27:20;;;;;;;5.55;1.58;;;;;;;;;;5078097;28;20063;-82
2021/07/07 05:29:45;;;;;;;10.73;1.45;;;;;;;;;;5078861;28;20029;-82
2021/07/07 05:32:11;;;;;;;15.88;2.20;;;;;;;;;;5079339;28;20551;-82
2021/07/07 05:34:39;;;;;;;8.77;1.50;;;;;;;;;;5077832;28;20134;-82
2021/07/07 05:37:04;;;;;;;1.80;1.02;;;;;;;;;;5078426;28;20043;-82
2021/07/07 05:39:29;;;;;;;8.23;1.17;;;;;;;;;;5078553;28;20036;-82
2021/07/07 05:41:56;;;;;;;4.63;1.08;;;;;;;;;;5079649;28;20052;-82
2021/07/07 05:44:22;;;;;;;5.55;1.27;;;;;;;;;;5079852;28;20032;-82
2021/07/07 05:46:47;;;;;;;5.03;1.30;;;;;;;;;;5077957;28;20094;-82
2021/07/07 05:49:13;;;;;;;2.50;0.95;;;;;;;;;;5078631;28;20036;-83
2021/07/07 05:51:38;;;;;;;6.45;1.17;;;;;;;;;;5078403;28;20068;-82
2021/07/07 05:54:04;;;;;;;7.95;1.50;;;;;;;;;;5077519;28;20039;-82
2021/07/07 05:56:29;;;;;;;7.00;1.40;;;;;;;;;;5077968;28;20040;-82
2021/07/07 05:58:54;;;;;;;8.05;1.30;;;;;;;;;;5078197;28;20037;-82
2021/07/07 06:01:20;;;;;;;6.38;1.83;;;;;;;;;;5077740;28;20467;-82
2021/07/07 06:03:45;;;;;;;7.32;1.48;;;;;;;;;;5077774;28;20036;-82
2021/07/07 06:06:11;;;;;;;3.40;1.30;;;;;;;;;;5076149;28;20091;-81
2021/07/07 06:08:36;;;;;;;6.30;1.27;;;;;;;;;;5077763;28;20394;-83
2021/07/07 06:11:02;;;;;;;12.60;1.83;;;;;;;;;;5076020;28;20036;-79
2021/07/07 06:13:27;;;;;;;4.13;1.40;;;;;;;;;;5076060;28;20036;-78
2021/07/07 06:15:53;;;;;;;7.68;1.55;;;;;;;;;;5077259;28;20028;-80
2021/07/07 06:18:18;;;;;;;9.38;1.73;;;;;;;;;;5077480;28;20557;-80
2021/07/07 06:20:44;;;;;;;6.40;1.27;;;;;;;;;;5076934;28;20110;-80
2021/07/07 06:23:09;;;;;;;14.80;1.80;;;;;;;;;;5075466;28;20119;-80
2021/07/07 06:25:35;;;;;;;16.15;1.35;;;;;;;;;;5077405;28;20497;-79
2021/07/07 06:28:01;;;;;;;3.80;1.60;;;;;;;;;;5076769;28;20174;-79
2021/07/07 06:30:27;;;;;;;4.47;1.30;;;;;;;;;;5076982;28;20036;-80
2021/07/07 06:32:55;;;;;;;11.90;1.60;;;;;;;;;;5076991;28;20044;-80
2021/07/07 06:35:21;;;;;;;3.88;1.17;;;;;;;;;;5076869;28;20064;-80
2021/07/07 06:37:48;;;;;;;12.00;2.05;;;;;;;;;;5076889;28;20084;-80
2021/07/07 06:40:16;;;;;;;9.57;1.35;;;;;;;;;;5076617;28;20038;-79
2021/07/07 06:42:42;;;;;;;9.18;1.48;;;;;;;;;;5076067;28;20028;-79
2021/07/07 06:45:09;;;;;;;5.35;1.48;;;;;;;;;;5075602;28;20051;-78
2021/07/07 06:47:36;;;;;;;9.10;2.05;;;;;;;;;;5075485;28;20032;-78
2021/07/07 06:50:07;;;;;;;8.50;2.15;;;;;;;;;;5073408;28;20481;-78
2021/07/07 06:52:33;;;;;;;5.88;2.17;;;;;;;;;;5074198;28;20032;-78
2021/07/07 06:54:58;;;;;;;7.75;1.83;;;;;;;;;;5073270;28;20028;-79
2021/07/07 06:57:24;;;;;;;3.10;1.50;;;;;;;;;;5073791;28;20378;-78
2021/07/07 06:59:50;;;;;;;10.48;2.00;;;;;;;;;;5073282;28;20090;-78
2021/07/07 07:02:15;;;;;;;9.70;1.80;;;;;;;;;;5075072;28;20115;-78
2021/07/07 07:04:41;;;;;;;8.80;1.90;;;;;;;;;;5073633;28;20075;-76
2021/07/07 07:07:06;;;;;;;12.85;2.05;;;;;;;;;;5071156;28;20103;-77
2021/07/07 07:09:32;;;;;;;8.57;2.10;;;;;;;;;;5073202;28;20051;-78
2021/07/07 07:11:57;;;;;;;3.42;1.70;;;;;;;;;;5071950;28;20445;-77
2021/07/07 07:14:23;;;;;;;7.38;2.03;;;;;;;;;;5071341;28;20458;-77
2021/07/07 07:16:48;;;;;;;5.20;1.40;;;;;;;;;;5073140;28;20040;-77
2021/07/07 07:19:14;;;;;;;5.20;1.42;;;;;;;;;;5073268;28;20056;-76
2021/07/07 07:21:40;;;;;;;6.88;1.20;;;;;;;;;;5073079;28;20517;-76
2021/07/07 07:24:06;;;;;;;6.53;1.42;;;;;;;;;;5073056;28;20032;-77
2021/07/07 07:26:33;;;;;;;8.98;1.58;;;;;;;;;;5072590;28;20036;-77
2021/07/07 07:28:59;;;;;;;3.25;1.13;;;;;;;;;;5072756;28;20033;-78
2021/07/07 07:31:24;;;;;;;5.57;1.23;;;;;;;;;;5073064;28;20032;-78
2021/07/07 07:33:50;;;;;;;8.48;1.38;;;;;;;;;;5073227;28;20169;-77
2021/07/07 07:36:16;;;;;;;10.95;1.42;;;;;;;;;;5073156;28;20044;-77
2021/07/07 07:38:45;;;;;;;3.35;1.50;;;;;;;;;;5072883;28;20041;-77
2021/07/07 07:41:11;;;;;;;5.13;1.40;;;;;;;;;;5073282;28;20040;-77
2021/07/07 07:43:37;;;;;;;7.35;1.40;;;;;;;;;;5073183;28;20036;-77
2021/07/07 07:46:03;;;;;;;3.70;1.45;;;;;;;;;;5072822;28;20033;-77
2021/07/07 07:48:29;;;;;;;9.68;2.30;;;;;;;;;;5073064;28;20086;-76
2021/07/07 07:50:55;;;;;;;3.97;1.20;;;;;;;;;;5073088;28;20079;-77
2021/07/07 07:53:21;;;;;;;3.85;1.38;;;;;;;;;;5072384;28;20036;-77
2021/07/07 07:55:47;;;;;;;4.03;1.40;;;;;;;;;;5072826;28;20037;-77
2021/07/07 07:58:19;;;;;;;3.33;1.40;;;;;;;;;;5071435;28;20037;-77
2021/07/07 08:00:49;;;;;;;6.43;1.50;;;;;;;;;;5071683;28;20111;-77
2021/07/07 08:03:15;;;;;;;4.90;1.48;;;;;;;;;;5072472;28;20055;-77
2021/07/07 08:05:42;;;;;;;4.10;1.48;;;;;;;;;;5071412;28;20033;-77
2021/07/07 08:08:09;;;;;;;7.38;1.60;;;;;;;;;;5072681;28;20093;-78
2021/07/07 08:10:35;;;;;;;9.40;1.48;;;;;;;;;;5072393;28;20059;-77
2021/07/07 08:13:01;;;;;;;4.18;1.25;;;;;;;;;;5072947;28;20037;-77
2021/07/07 08:15:27;;;;;;;8.75;1.60;;;;;;;;;;5073019;28;20430;-77
2021/07/07 08:17:56;;;;;;;13.82;1.60;;;;;;;;;;5076111;28;20477;-77
2021/07/07 08:20:22;;;;;;;6.72;1.58;;;;;;;;;;5075938;28;20033;-77
2021/07/07 08:22:49;;;;;;;7.35;1.40;;;;;;;;;;5075203;28;20032;-77
2021/07/07 08:25:16;;;;;;;7.78;1.45;;;;;;;;;;5075141;28;20032;-77
2021/07/07 08:27:41;;;;;;;7.45;1.55;;;;;;;;;;5075102;28;20061;-77
2021/07/07 08:30:09;;;;;;;4.20;1.48;;;;;;;;;;5076205;28;20032;-77
2021/07/07 08:32:35;;;;;;;9.85;1.20;;;;;;;;;;5076041;28;20351;-77
2021/07/07 08:35:00;;;;;;;5.07;1.63;;;;;;;;;;5076089;28;20063;-77
2021/07/07 08:37:26;;;;;;;10.77;1.80;;;;;;;;;;5075795;28;20075;-77
2021/07/07 08:39:51;;;;;;;3.55;1.30;;;;;;;;;;5076143;28;20036;-77
2021/07/07 08:42:17;;;;;;;10.52;1.55;;;;;;;;;;5076102;28;20039;-77
2021/07/07 08:44:43;;;;;;;7.88;1.42;;;;;;;;;;5075970;28;20041;-77
2021/07/07 08:47:09;;;;;;;6.25;1.50;;;;;;;;;;5075714;28;20064;-77
2021/07/07 08:49:35;;;;;;;9.88;1.67;;;;;;;;;;5074573;28;20055;-77
2021/07/07 08:52:02;;;;;;;7.82;1.55;;;;;;;;;;5075254;28;20032;-77
2021/07/07 08:54:29;;;;;;;4.50;1.50;;;;;;;;;;5075972;28;20037;-77
2021/07/07 08:56:54;;;;;;;3.55;1.67;;;;;;;;;;5075750;28;20375;-77
2021/07/07 08:59:20;;;;;;;5.57;1.60;;;;;;;;;;5075826;28;20037;-77
2021/07/07 09:02:09;;;;;;;7.97;1.95;;;;;;;;;;5075600;28;20039;-76
2021/07/07 09:04:37;;;;;;;6.70;1.80;;;;;;;;;;5075834;28;20044;-77
2021/07/07 09:07:08;;;;;;;3.17;1.10;;;;;;;;;;5074225;28;20108;-77
2021/07/07 09:09:45;;;;;;;5.28;1.55;;;;;;;;;;5075249;28;20394;-77
2021/07/07 09:12:43;;;;;;;5.13;1.13;;;;;;;;;;5075350;28;20100;-76
2021/07/07 09:15:14;;;;;;;9.25;1.83;;;;;;;;;;5063240;28;20084;-76
2021/07/07 09:17:48;;;;;;;7.15;1.60;;;;;;;;;;5075339;28;20045;-76
2021/07/07 09:20:16;;;;;;;7.47;1.45;;;;;;;;;;5074267;28;20040;-77
2021/07/07 09:22:42;;;;;;;8.05;1.50;;;;;;;;;;5075078;28;20081;-77
2021/07/07 09:25:08;;;;;;;5.05;1.98;;;;;;;;;;5074399;28;20060;-77
2021/07/07 09:27:36;;;;;;;5.78;1.85;;;;;;;;;;5074091;28;20025;-77
2021/07/07 09:30:10;;;;;;;11.75;3.83;;;;;;;;;;5075310;28;20082;-77
2021/07/07 09:32:43;;;;;;;9.52;1.70;;;;;;;;;;5075691;28;20028;-77
2021/07/07 09:35:09;;;;;;;9.65;1.70;;;;;;;;;;5075083;28;20068;-77
2021/07/07 09:37:45;;;;;;;4.45;1.48;;;;;;;;;;5074764;28;20459;-77
2021/07/07 09:40:12;;;;;;;8.68;1.67;;;;;;;;;;5075341;28;20387;-77
2021/07/07 09:42:40;;;;;;;5.13;1.67;;;;;;;;;;5074901;28;20040;-74
2021/07/07 09:45:08;;;;;;;11.50;1.90;;;;;;;;;;5073360;28;20509;-76
2021/07/07 09:47:34;;;;;;;4.15;1.70;;;;;;;;;;5073267;28;20032;-75
2021/07/07 09:49:59;;;;;;;6.00;1.40;;;;;;;;;;5074789;28;20589;-75
2021/07/07 09:52:27;;;;;;;7.45;1.83;;;;;;;;;;5073874;28;20053;-78
2021/07/07 09:54:54;;;;;;;7.05;1.50;;;;;;;;;;5074176;28;20474;-77
2021/07/07 09:57:20;;;;;;;14.70;2.45;;;;;;;;;;5073832;28;20104;-77
2021/07/07 09:59:46;;;;;;;10.07;1.70;;;;;;;;;;5073929;28;20059;-77
2021/07/07 10:02:12;;;;;;;4.90;1.60;;;;;;;;;;5073628;28;20138;-78
2021/07/07 10:04:40;;;;;;;9.20;1.70;;;;;;;;;;5073896;28;20071;-77
2021/07/07 10:07:07;;;;;;;5.45;2.10;;;;;;;;;;5072450;28;20044;-77
2021/07/07 10:09:35;;;;;;;6.43;1.77;;;;;;;;;;5073775;28;20062;-76
2021/07/07 10:12:01;;;;;;;7.25;1.65;;;;;;;;;;5074316;28;20047;-77
2021/07/07 10:14:27;;;;;;;7.25;2.15;;;;;;;;;;5074243;28;20037;-77
2021/07/07 10:16:52;;;;;;;9.82;2.33;;;;;;;;;;5073941;28;20139;-77
2021/07/07 10:19:19;;;;;;;9.60;1.73;;;;;;;;;;5072966;28;20462;-76
2021/07/07 10:21:44;;;;;;;5.78;1.92;;;;;;;;;;5073460;28;20032;-76
2021/07/07 10:24:10;;;;;;;12.75;2.25;;;;;;;;;;5074066;28;20379;-77
2021/07/07 10:26:36;;;;;;;6.13;1.60;;;;;;;;;;5073046;28;20029;-77
2021/07/07 10:29:03;;;;;;;8.95;1.83;;;;;;;;;;5072752;28;20036;-77
2021/07/07 10:31:52;;;;;;;5.43;1.33;;;;;;;;;;5072789;28;20040;-77
2021/07/07 10:34:21;;;;;;;15.57;1.65;;;;;;;;;;5074065;28;20371;-77
2021/07/07 10:36:47;;;;;;;10.38;2.10;;;;;;;;;;5072728;28;20072;-79
2021/07/07 10:39:14;;;;;;;9.57;1.77;;;;;;;;;;5072373;28;20119;-77
2021/07/07 10:41:45;;;;;;;9.18;2.00;;;;;;;;;;5072644;28;20039;-77
2021/07/07 10:44:31;;;;;;;8.65;2.28;;;;;;;;;;5072667;28;20044;-77
2021/07/07 10:47:00;;;;;;;13.65;2.00;;;;;;;;;;5064591;28;20135;-77
2021/07/07 10:49:28;;;;;;;11.77;1.77;;;;;;;;;;5072045;28;20044;-77
2021/07/07 10:51:57;;;;;;;10.07;1.60;;;;;;;;;;5073171;28;20032;-77
2021/07/07 10:54:33;;;;;;;5.93;1.60;;;;;;;;;;5073382;28;20028;-77
2021/07/07 10:57:00;;;;;;;9.13;1.80;;;;;;;;;;5073467;28;20039;-78
2021/07/07 10:59:47;;;;;;;7.35;1.92;;;;;;;;;;5073765;28;20513;-79
2021/07/07 11:02:16;;;;;;;7.53;1.75;;;;;;;;;;5073542;28;20466;-77
2021/07/07 11:04:44;;;;;;;5.53;1.60;;;;;;;;;;5073336;28;20032;-77
2021/07/07 11:07:28;;;;;;;5.80;1.55;;;;;;;;;;5074067;28;20092;-79
2021/07/07 11:09:55;;;;;;;6.30;2.00;;;;;;;;;;5076136;28;20046;-79
2021/07/07 11:12:36;;;;;;;7.95;1.30;;;;;;;;;;5076147;28;20107;-78
2021/07/07 11:15:15;;;;;;;3.78;1.55;;;;;;;;;;5057191;28;20090;-77
2021/07/07 11:17:48;;;;;;;8.73;1.73;;;;;;;;;;5075031;28;20131;-78
2021/07/07 11:20:18;;;;;;;7.57;2.05;;;;;;;;;;5076045;28;20071;-79
2021/07/07 11:22:46;;;;;;;9.95;1.85;;;;;;;;;;5075264;28;20051;-77
2021/07/07 11:25:15;;;;;;;8.93;1.52;;;;;;;;;;5074780;28;20036;-77
2021/07/07 11:27:41;;;;;;;6.63;1.90;;;;;;;;;;5071270;28;20406;-78
2021/07/07 11:30:14;;;;;;;11.63;1.42;;;;;;;;;;5077012;28;20037;-82
2021/07/07 11:32:42;;;;;;;10.75;1.63;;;;;;;;;;5076594;28;20028;-81
2021/07/07 11:35:11;;;;;;;6.50;1.63;;;;;;;;;;5077945;28;20033;-80
2021/07/07 11:37:37;;;;;;;8.50;2.10;;;;;;;;;;5075937;28;20498;-79
2021/07/07 11:40:22;;;;;;;9.73;1.92;;;;;;;;;;5075043;28;20028;-79
2021/07/07 11:42:54;;;;;;;6.68;1.58;;;;;;;;;;5074269;28;20066;-79
2021/07/07 11:45:25;;;;;;;3.70;1.55;;;;;;;;;;5075620;28;20064;-78
2021/07/07 11:48:00;;;;;;;6.13;1.40;;;;;;;;;;5074998;28;20086;-78
2021/07/07 11:50:27;;;;;;;11.65;2.15;;;;;;;;;;5074792;28;20040;-79
2021/07/07 11:53:00;;;;;;;9.75;1.83;;;;;;;;;;5079082;28;20086;-78
2021/07/07 11:56:07;;;;;;;15.15;1.92;;;;;;;;;;5078753;28;20063;-78
2021/07/07 11:58:33;;;;;;;4.22;1.45;;;;;;;;;;5076029;28;20055;-78
2021/07/07 12:01:05;;;;;;;5.20;1.70;;;;;;;;;;5078479;28;20094;-78
2021/07/07 12:03:31;;;;;;;10.77;2.00;;;;;;;;;;5079344;28;20044;-78
2021/07/07 12:06:00;;;;;;;5.57;1.65;;;;;;;;;;5079603;28;20111;-78
2021/07/07 12:08:28;;;;;;;8.88;1.75;;;;;;;;;;5078516;28;20470;-78
2021/07/07 12:11:23;;;;;;;5.03;1.35;;;;;;;;;;5079046;28;20028;-78
2021/07/07 12:13:53;;;;;;;6.22;1.38;;;;;;;;;;5074112;28;20048;-78
2021/07/07 12:16:25;;;;;;;9.90;1.60;;;;;;;;;;5079793;28;20043;-78
2021/07/07 12:18:53;;;;;;;5.28;1.48;;;;;;;;;;5079669;28;20131;-78
2021/07/07 12:21:21;;;;;;;3.83;1.45;;;;;;;;;;5079875;28;20036;-79
2021/07/07 12:23:52;;;;;;;8.90;1.98;;;;;;;;;;5079944;28;20036;-79
2021/07/07 12:26:18;;;;;;;10.80;1.80;;;;;;;;;;5079621;28;20082;-78
2021/07/07 12:28:44;;;;;;;4.28;1.17;;;;;;;;;;5079101;28;20099;-78
2021/07/07 12:31:09;;;;;;;3.08;1.27;;;;;;;;;;5080456;28;20547;-79
2021/07/07 12:33:36;;;;;;;4.05;1.40;;;;;;;;;;5078739;28;20036;-79
2021/07/07 12:36:02;;;;;;;7.90;1.80;;;;;;;;;;5080260;28;20036;-79
2021/07/07 12:38:28;;;;;;;7.75;2.00;;;;;;;;;;5080301;28;20028;-78
2021/07/07 12:40:57;;;;;;;6.13;1.60;;;;;;;;;;5080034;28;20041;-79
2021/07/07 12:43:28;;;;;;;5.20;1.83;;;;;;;;;;5078694;28;20033;-79
2021/07/07 12:46:04;;;;;;;4.32;1.52;;;;;;;;;;5079367;28;20052;-79
2021/07/07 12:48:30;;;;;;;4.68;1.40;;;;;;;;;;5079141;28;20056;-79
2021/07/07 12:50:55;;;;;;;6.70;1.92;;;;;;;;;;5077907;28;20059;-78
2021/07/07 12:53:34;;;;;;;7.93;1.60;;;;;;;;;;5079637;28;20036;-79
2021/07/07 12:56:07;;;;;;;4.65;1.55;;;;;;;;;;5078872;28;20510;-79
2021/07/07 12:58:32;;;;;;;5.90;1.80;;;;;;;;;;5078681;28;20036;-78
2021/07/07 13:00:57;;;;;;;4.53;1.50;;;;;;;;;;5078628;28;20041;-78
2021/07/07 13:03:33;;;;;;;12.57;2.08;;;;;;;;;;5075439;28;20036;-79
2021/07/07 13:06:02;;;;;;;4.82;1.30;;;;;;;;;;5077880;28;20040;-78
2021/07/07 13:08:35;;;;;;;3.83;1.27;;;;;;;;;;5078401;28;20103;-78
2021/07/07 13:11:01;;;;;;;4.78;1.48;;;;;;;;;;5078341;28;20036;-78
2021/07/07 13:13:27;;;;;;;4.72;1.40;;;;;;;;;;5077065;28;20534;-78
2021/07/07 13:16:02;;;;;;;3.25;1.20;;;;;;;;;;5077916;28;20033;-79
2021/07/07 13:18:29;;;;;;;3.80;1.33;;;;;;;;;;5077130;28;20048;-79
2021/07/07 13:20:59;;;;;;;7.13;1.65;;;;;;;;;;5077087;28;20031;-79
2021/07/07 13:23:26;;;;;;;7.05;1.75;;;;;;;;;;5078877;28;20516;-80
2021/07/07 13:26:21;;;;;;;7.97;1.58;;;;;;;;;;5076643;28;20044;-79
2021/07/07 13:28:48;;;;;;;3.42;1.38;;;;;;;;;;5078148;28;20058;-79
2021/07/07 13:31:14;;;;;;;6.07;1.80;;;;;;;;;;5078050;28;20463;-79
2021/07/07 13:33:39;;;;;;;4.40;1.40;;;;;;;;;;5078968;28;20131;-79
2021/07/07 13:36:05;;;;;;;5.30;2.25;;;;;;;;;;5078446;28;20037;-79
2021/07/07 13:38:30;;;;;;;9.68;1.58;;;;;;;;;;5078194;28;20127;-79
2021/07/07 13:40:56;;;;;;;6.55;2.00;;;;;;;;;;5078234;28;20051;-79
2021/07/07 13:43:23;;;;;;;6.93;2.10;;;;;;;;;;5076658;28;20043;-79
2021/07/07 13:45:49;;;;;;;9.73;2.67;;;;;;;;;;5077969;28;20522;-79
2021/07/07 13:48:15;;;;;;;7.88;1.73;;;;;;;;;;5077578;28;20035;-79
2021/07/07 13:50:40;;;;;;;6.78;1.63;;;;;;;;;;5077331;28;20033;-78
2021/07/07 13:53:05;;;;;;;6.57;2.13;;;;;;;;;;5077777;28;20063;-79
2021/07/07 13:55:33;;;;;;;14.02;1.70;;;;;;;;;;5077647;28;20036;-77
2021/07/07 13:57:59;;;;;;;6.78;1.50;;;;;;;;;;5074316;28;20048;-77
2021/07/07 14:00:25;;;;;;;13.38;3.22;;;;;;;;;;5073803;28;20032;-76
2021/07/07 14:02:50;;;;;;;4.43;1.50;;;;;;;;;;5074339;28;20028;-77
2021/07/07 14:05:15;;;;;;;34.17;3.42;;;;;;;;;;5074611;28;20517;-76
2021/07/07 14:07:41;;;;;;;32.00;6.57;;;;;;;;;;5074294;28;20060;-76
2021/07/07 14:10:07;;;;;;;17.67;3.13;;;;;;;;;;5074504;28;20047;-78
2021/07/07 14:12:32;;;;;;;7.97;1.77;;;;;;;;;;5074838;28;20143;-76
2021/07/07 14:14:58;;;;;;;9.05;1.90;;;;;;;;;;5074054;28;20027;-76
2021/07/07 14:17:24;;;;;;;7.03;2.05;;;;;;;;;;5074289;28;20040;-77
2021/07/07 14:19:49;;;;;;;6.90;1.50;;;;;;;;;;5073162;28;20501;-77
2021/07/07 14:22:15;;;;;;;13.77;1.88;;;;;;;;;;5074296;28;20032;-76
2021/07/07 14:24:40;;;;;;;4.55;1.05;;;;;;;;;;5074209;28;20037;-78
2021/07/07 14:27:06;;;;;;;7.75;1.55;;;;;;;;;;5075475;28;20083;-78
2021/07/07 14:29:32;;;;;;;11.80;2.40;;;;;;;;;;5076319;28;20086;-77
2021/07/07 14:31:59;;;;;;;4.35;1.58;;;;;;;;;;5073839;28;20086;-77
2021/07/07 14:34:25;;;;;;;7.78;1.60;;;;;;;;;;5073920;28;20040;-77
2021/07/07 14:36:50;;;;;;;4.72;1.45;;;;;;;;;;5072620;28;20039;-76
2021/07/07 14:39:16;;;;;;;5.40;1.58;;;;;;;;;;5072872;28;20382;-77
2021/07/07 14:41:41;;;;;;;2.70;1.30;;;;;;;;;;5073821;28;20033;-76